createdAt,value
2023-03-28T00:00:00.357Z,31
2023-03-28T00:01:07.401Z,28
2023-03-28T00:02:14.295Z,30
2023-03-28T00:03:21.060Z,28
2023-03-28T00:04:27.851Z,31
2023-03-28T00:05:34.623Z,28
2023-03-28T00:06:41.525Z,29
2023-03-28T00:07:48.363Z,31
2023-03-28T00:08:55.159Z,28
2023-03-28T00:10:01.993Z,30
2023-03-28T00:11:08.958Z,28
2023-03-28T00:12:15.776Z,29
2023-03-28T00:13:25.608Z,29
2023-03-28T00:14:32.529Z,30
2023-03-28T00:15:39.385Z,33
2023-03-28T00:16:46.164Z,32
2023-03-28T00:17:52.936Z,37
2023-03-28T00:18:59.741Z,39
2023-03-28T00:20:08.362Z,39
2023-03-28T00:21:13.916Z,41
2023-03-28T00:22:20.706Z,45
2023-03-28T00:23:27.470Z,43
2023-03-28T00:24:34.337Z,37
2023-03-28T00:25:41.240Z,35
2023-03-28T00:26:48.137Z,34
2023-03-28T00:27:54.920Z,34
2023-03-28T00:29:01.787Z,32
2023-03-28T00:30:08.625Z,28
2023-03-28T00:31:15.549Z,33
2023-03-28T00:32:22.422Z,29
2023-03-28T00:33:29.259Z,28
2023-03-28T00:34:36.054Z,27
2023-03-28T00:35:42.982Z,25
2023-03-28T00:36:49.825Z,28
2023-03-28T00:37:56.682Z,27
2023-03-28T00:39:03.541Z,26
2023-03-28T00:40:10.439Z,24
2023-03-28T00:41:17.296Z,26
2023-03-28T00:42:24.102Z,23
2023-03-28T00:43:30.950Z,24
2023-03-28T00:44:43.593Z,22
2023-03-28T00:46:06.453Z,22
2023-03-28T00:47:02.275Z,22
2023-03-28T00:48:13.925Z,20
2023-03-28T00:49:15.941Z,21
2023-03-28T00:50:22.806Z,23
2023-03-28T00:51:32.387Z,21
2023-03-28T00:52:42.094Z,22
2023-03-28T00:53:56.825Z,19
2023-03-28T00:55:03.705Z,20
2023-03-28T00:56:10.548Z,20
2023-03-28T00:57:47.095Z,18
2023-03-28T00:58:59.356Z,19
2023-03-28T01:00:06.314Z,18
2023-03-28T01:01:16.213Z,18
2023-03-28T01:02:23.060Z,19
2023-03-28T01:03:29.948Z,19
2023-03-28T01:04:36.761Z,18
2023-03-28T01:05:43.746Z,18
2023-03-28T01:06:50.545Z,17
2023-03-28T01:07:57.314Z,18
2023-03-28T01:09:09.246Z,18
2023-03-28T01:10:16.016Z,19
2023-03-28T01:11:22.951Z,20
2023-03-28T01:12:29.767Z,19
2023-03-28T01:13:36.630Z,17
2023-03-28T01:14:43.455Z,17
2023-03-28T01:15:50.349Z,17
2023-03-28T01:16:57.042Z,19
2023-03-28T01:18:03.907Z,18
2023-03-28T01:19:10.806Z,18
2023-03-28T01:20:22.710Z,18
2023-03-28T01:21:39.591Z,19
2023-03-28T01:22:56.154Z,17
2023-03-28T01:24:10.736Z,20
2023-03-28T01:25:20.646Z,19
2023-03-28T01:26:33.093Z,18
2023-03-28T01:27:49.998Z,18
2023-03-28T01:28:59.792Z,19
2023-03-28T01:30:16.732Z,19
2023-03-28T01:31:33.651Z,17
2023-03-28T01:32:50.648Z,19
2023-03-28T01:34:02.604Z,15
2023-03-28T01:35:17.555Z,16
2023-03-28T01:36:33.716Z,18
2023-03-28T01:37:44.348Z,16
2023-03-28T01:39:01.263Z,18
2023-03-28T01:40:18.256Z,16
2023-03-28T01:41:30.182Z,17
2023-03-28T01:42:42.028Z,17
2023-03-28T01:43:54.384Z,16
2023-03-28T01:45:04.094Z,17
2023-03-28T01:46:16.073Z,17
2023-03-28T01:47:25.456Z,16
2023-03-28T01:48:37.411Z,16
2023-03-28T01:49:49.250Z,17
2023-03-28T01:51:02.050Z,16
2023-03-28T01:52:16.709Z,16
2023-03-28T01:53:33.643Z,16
2023-03-28T01:54:45.537Z,15
2023-03-28T01:56:02.623Z,17
2023-03-28T01:57:19.682Z,15
2023-03-28T01:58:29.082Z,19
2023-03-28T01:59:46.232Z,17
2023-03-28T02:01:00.757Z,16
2023-03-28T02:02:13.162Z,15
2023-03-28T02:03:30.090Z,15
2023-03-28T02:04:39.620Z,16
2023-03-28T02:05:46.445Z,18
2023-03-28T02:06:53.213Z,15
2023-03-28T02:08:00.038Z,16
2023-03-28T02:09:06.862Z,15
2023-03-28T02:10:13.737Z,16
2023-03-28T02:11:20.585Z,16
2023-03-28T02:12:27.384Z,16
2023-03-28T02:13:34.192Z,16
2023-03-28T02:14:46.050Z,13
2023-03-28T02:15:52.994Z,14
2023-03-28T02:16:59.700Z,14
2023-03-28T02:18:06.550Z,13
2023-03-28T02:19:18.335Z,15
2023-03-28T02:20:25.179Z,15
2023-03-28T02:21:32.098Z,13
2023-03-28T02:22:43.950Z,14
2023-03-28T02:23:55.827Z,14
2023-03-28T02:25:02.683Z,14
2023-03-28T02:26:09.659Z,15
2023-03-28T02:27:16.447Z,14
2023-03-28T02:28:23.275Z,13
2023-03-28T02:29:30.087Z,14
2023-03-28T02:30:36.866Z,14
2023-03-28T02:31:43.738Z,15
2023-03-28T02:32:50.743Z,14
2023-03-28T02:34:02.477Z,13
2023-03-28T02:35:09.319Z,12
2023-03-28T02:36:16.226Z,15
2023-03-28T02:37:33.091Z,14
2023-03-28T02:38:44.943Z,13
2023-03-28T02:39:56.806Z,14
2023-03-28T02:41:11.330Z,12
2023-03-28T02:42:25.962Z,12
2023-03-28T02:43:42.926Z,11
2023-03-28T02:44:54.767Z,11
2023-03-28T02:46:06.803Z,9
2023-03-28T02:47:23.753Z,10
2023-03-28T02:48:35.624Z,10
2023-03-28T02:49:50.996Z,9
2023-03-28T02:51:04.797Z,9
2023-03-28T02:52:11.590Z,10
2023-03-28T02:53:28.541Z,11
2023-03-28T02:54:40.705Z,9
2023-03-28T02:55:52.546Z,11
2023-03-28T02:57:01.966Z,9
2023-03-28T02:58:13.791Z,9
2023-03-28T02:59:25.625Z,8
2023-03-28T03:00:32.491Z,9
2023-03-28T03:01:39.303Z,9
2023-03-28T03:02:46.230Z,10
2023-03-28T03:03:53.736Z,9
2023-03-28T03:04:59.906Z,10
2023-03-28T03:06:06.813Z,9
2023-03-28T03:07:13.654Z,10
2023-03-28T03:08:20.527Z,10
2023-03-28T03:09:27.371Z,9
2023-03-28T03:10:34.361Z,9
2023-03-28T03:11:41.162Z,10
2023-03-28T03:12:47.961Z,10
2023-03-28T03:13:54.780Z,10
2023-03-28T03:15:01.668Z,10
2023-03-28T03:16:08.743Z,11
2023-03-28T03:17:15.531Z,12
2023-03-28T03:18:22.377Z,12
2023-03-28T03:19:29.246Z,16
2023-03-28T03:20:36.129Z,26
2023-03-28T03:21:43.006Z,120
2023-03-28T03:22:49.799Z,45
2023-03-28T03:23:59.584Z,24
2023-03-28T03:25:06.561Z,26
2023-03-28T03:26:13.668Z,26
2023-03-28T03:27:20.598Z,18
2023-03-28T03:28:27.442Z,15
2023-03-28T03:29:38.319Z,14
2023-03-28T03:30:41.209Z,20
2023-03-28T03:31:48.061Z,16
2023-03-28T03:32:54.896Z,18
2023-03-28T03:34:01.746Z,14
2023-03-28T03:35:08.509Z,13
2023-03-28T03:36:15.372Z,12
2023-03-28T03:37:22.171Z,11
2023-03-28T03:38:29.154Z,12
2023-03-28T03:39:36.035Z,12
2023-03-28T03:40:42.873Z,12
2023-03-28T03:41:49.611Z,13
2023-03-28T03:42:56.390Z,11
2023-03-28T03:44:03.233Z,12
2023-03-28T03:45:10.124Z,13
2023-03-28T03:46:16.932Z,15
2023-03-28T03:47:23.685Z,14
2023-03-28T03:48:30.504Z,16
2023-03-28T03:49:37.314Z,14
2023-03-28T03:50:44.104Z,17
2023-03-28T03:51:50.924Z,15
2023-03-28T03:52:57.718Z,18
2023-03-28T03:54:04.523Z,16
2023-03-28T03:55:11.284Z,16
2023-03-28T03:56:18.141Z,21
2023-03-28T03:57:25.014Z,21
2023-03-28T03:58:31.881Z,22
2023-03-28T03:59:38.652Z,27
2023-03-28T04:00:45.551Z,27
2023-03-28T04:01:52.536Z,29
2023-03-28T04:02:59.320Z,30
2023-03-28T04:04:06.148Z,31
2023-03-28T04:05:12.926Z,31
2023-03-28T04:06:19.727Z,32
2023-03-28T04:07:26.687Z,32
2023-03-28T04:08:33.583Z,31
2023-03-28T04:09:40.443Z,28
2023-03-28T04:10:47.462Z,28
2023-03-28T04:11:54.122Z,25
2023-03-28T04:13:00.933Z,26
2023-03-28T04:14:07.923Z,22
2023-03-28T04:15:14.735Z,16
2023-03-28T04:16:21.500Z,14
2023-03-28T04:17:28.360Z,16
2023-03-28T04:18:35.131Z,13
2023-03-28T04:19:41.950Z,11
2023-03-28T04:20:48.764Z,9
2023-03-28T04:21:55.569Z,12
2023-03-28T04:23:02.370Z,11
2023-03-28T04:24:09.125Z,12
2023-03-28T04:25:15.986Z,11
2023-03-28T04:26:22.764Z,12
2023-03-28T04:27:29.580Z,10
2023-03-28T04:28:36.392Z,10
2023-03-28T04:29:43.148Z,9
2023-03-28T04:30:50.065Z,7
2023-03-28T04:31:56.827Z,7
2023-03-28T04:33:03.776Z,7
2023-03-28T04:34:10.464Z,6
2023-03-28T04:35:17.267Z,7
2023-03-28T04:36:24.168Z,6
2023-03-28T04:37:31.054Z,6
2023-03-28T04:38:37.885Z,6
2023-03-28T04:39:44.706Z,7
2023-03-28T04:40:51.468Z,7
2023-03-28T04:41:58.377Z,7
2023-03-28T04:43:05.199Z,6
2023-03-28T04:44:11.999Z,8
2023-03-28T04:45:18.792Z,8
2023-03-28T04:46:25.656Z,8
2023-03-28T04:47:32.419Z,9
2023-03-28T04:48:42.281Z,8
2023-03-28T04:49:49.140Z,8
2023-03-28T04:50:55.928Z,9
2023-03-28T04:52:02.699Z,9
2023-03-28T04:53:09.525Z,9
2023-03-28T04:54:16.321Z,10
2023-03-28T04:55:23.174Z,10
2023-03-28T04:56:30.012Z,8
2023-03-28T04:57:36.801Z,10
2023-03-28T04:58:43.632Z,10
2023-03-28T04:59:50.433Z,9
2023-03-28T05:00:57.430Z,9
2023-03-28T05:02:07.036Z,10
2023-03-28T05:03:13.934Z,11
2023-03-28T05:04:23.528Z,12
2023-03-28T05:05:30.370Z,13
2023-03-28T05:06:37.191Z,10
2023-03-28T05:07:44.065Z,12
2023-03-28T05:08:51.022Z,11
2023-03-28T05:09:57.919Z,11
2023-03-28T05:11:04.848Z,10
2023-03-28T05:12:11.656Z,11
2023-03-28T05:13:18.480Z,12
2023-03-28T05:14:25.421Z,14
2023-03-28T05:15:32.257Z,14
2023-03-28T05:16:39.094Z,22
2023-03-28T05:17:45.972Z,21
2023-03-28T05:18:52.818Z,15
2023-03-28T05:19:59.863Z,19
2023-03-28T05:21:07.103Z,15
2023-03-28T05:22:13.917Z,13
2023-03-28T05:23:20.840Z,17
2023-03-28T05:24:27.819Z,15
2023-03-28T05:25:34.685Z,43
2023-03-28T05:26:41.484Z,31
2023-03-28T05:27:48.324Z,23
2023-03-28T05:28:55.216Z,25
2023-03-28T05:30:02.072Z,26
2023-03-28T05:31:09.277Z,21
2023-03-28T05:32:16.123Z,18
2023-03-28T05:33:23.030Z,24
2023-03-28T05:34:29.779Z,17
2023-03-28T05:35:36.704Z,19
2023-03-28T05:36:43.557Z,11
2023-03-28T05:37:50.503Z,9
2023-03-28T05:38:57.472Z,9
2023-03-28T05:40:04.286Z,11
2023-03-28T05:41:11.386Z,10
2023-03-28T05:42:18.215Z,11
2023-03-28T05:43:25.090Z,12
2023-03-28T05:44:32.030Z,14
2023-03-28T05:45:38.994Z,12
2023-03-28T05:46:45.756Z,12
2023-03-28T05:47:52.649Z,12
2023-03-28T05:48:59.442Z,13
2023-03-28T05:50:06.367Z,12
2023-03-28T05:51:13.309Z,14
2023-03-28T05:52:20.079Z,14
2023-03-28T05:53:27.011Z,14
2023-03-28T05:54:33.868Z,13
2023-03-28T05:55:40.734Z,12
2023-03-28T05:56:47.765Z,11
2023-03-28T05:57:54.953Z,10
2023-03-28T05:59:01.877Z,10
2023-03-28T06:00:08.850Z,11
2023-03-28T06:01:15.913Z,12
2023-03-28T06:02:22.896Z,10
2023-03-28T06:03:29.685Z,10
2023-03-28T06:04:36.654Z,10
2023-03-28T06:05:43.529Z,10
2023-03-28T06:06:50.448Z,10
2023-03-28T06:07:57.295Z,11
2023-03-28T06:09:04.228Z,11
2023-03-28T06:10:11.156Z,11
2023-03-28T06:11:17.996Z,13
2023-03-28T06:12:24.863Z,11
2023-03-28T06:13:31.789Z,11
2023-03-28T06:14:38.729Z,10
2023-03-28T06:15:45.585Z,9
2023-03-28T06:16:52.483Z,11
2023-03-28T06:17:59.291Z,9
2023-03-28T06:19:17.022Z,8
2023-03-28T06:20:12.997Z,10
2023-03-28T06:21:19.968Z,10
2023-03-28T06:22:26.835Z,11
2023-03-28T06:23:33.691Z,8
2023-03-28T06:24:40.531Z,9
2023-03-28T06:25:47.413Z,8
2023-03-28T06:26:54.296Z,6
2023-03-28T06:28:01.124Z,8
2023-03-28T06:29:08.031Z,6
2023-03-28T06:30:14.871Z,9
2023-03-28T06:31:21.889Z,8
2023-03-28T06:32:28.688Z,7
2023-03-28T06:33:35.557Z,7
2023-03-28T06:34:45.004Z,7
2023-03-28T06:35:51.886Z,7
2023-03-28T06:36:58.695Z,7
2023-03-28T06:38:05.601Z,6
2023-03-28T06:39:12.543Z,7
2023-03-28T06:40:19.362Z,8
2023-03-28T06:41:26.194Z,6
2023-03-28T06:42:33.123Z,7
2023-03-28T06:43:41.515Z,5
2023-03-28T06:44:48.497Z,6
2023-03-28T06:45:55.480Z,5
2023-03-28T06:47:02.386Z,5
2023-03-28T06:48:09.265Z,6
2023-03-28T06:49:16.060Z,5
2023-03-28T06:50:22.891Z,4
2023-03-28T06:51:29.825Z,5
2023-03-28T06:52:36.676Z,6
2023-03-28T06:53:43.528Z,4
2023-03-28T06:54:50.330Z,4
2023-03-28T06:55:57.229Z,4
2023-03-28T06:57:04.203Z,4
2023-03-28T06:58:11.004Z,4
2023-03-28T06:59:17.955Z,4
2023-03-28T07:00:24.884Z,4
2023-03-28T07:01:31.736Z,4
2023-03-28T07:02:38.675Z,5
2023-03-28T07:03:45.501Z,5
2023-03-28T07:04:52.265Z,4
2023-03-28T07:05:59.068Z,5
2023-03-28T07:07:09.022Z,5
2023-03-28T07:08:15.921Z,6
2023-03-28T07:09:22.872Z,6
2023-03-28T07:10:29.628Z,16
2023-03-28T07:11:36.495Z,8
2023-03-28T07:12:43.346Z,15
2023-03-28T07:13:50.169Z,51
2023-03-28T07:14:57.042Z,60
2023-03-28T07:16:04.044Z,260
2023-03-28T07:17:11.070Z,201
2023-03-28T07:18:17.992Z,235
2023-03-28T07:19:24.786Z,164
2023-03-28T07:20:31.626Z,283
2023-03-28T07:21:38.509Z,251
2023-03-28T07:22:45.420Z,286
2023-03-28T07:23:52.302Z,163
2023-03-28T07:24:59.172Z,166
2023-03-28T07:26:05.946Z,213
2023-03-28T07:27:15.924Z,135
2023-03-28T07:28:19.671Z,101
2023-03-28T07:29:26.470Z,95
2023-03-28T07:30:33.315Z,94
2023-03-28T07:31:40.162Z,151
2023-03-28T07:32:54.509Z,51
2023-03-28T07:33:53.923Z,53
2023-03-28T07:35:00.743Z,54
2023-03-28T07:36:07.890Z,25
2023-03-28T07:37:17.317Z,33
2023-03-28T07:38:24.160Z,18
2023-03-28T07:39:31.046Z,15
2023-03-28T07:40:38.089Z,17
2023-03-28T07:41:44.904Z,13
2023-03-28T07:42:51.716Z,10
2023-03-28T07:43:58.494Z,12
2023-03-28T07:45:05.317Z,11
2023-03-28T07:46:12.381Z,7
2023-03-28T07:47:19.270Z,11
2023-03-28T07:48:26.157Z,6
2023-03-28T07:49:33.069Z,5
2023-03-28T07:50:39.901Z,5
2023-03-28T07:51:46.834Z,5
2023-03-28T07:52:53.755Z,5
2023-03-28T07:54:00.714Z,4
2023-03-28T07:55:07.565Z,4
2023-03-28T07:56:14.450Z,5
2023-03-28T07:57:21.411Z,6
2023-03-28T07:58:28.386Z,5
2023-03-28T07:59:35.392Z,4
2023-03-28T08:00:42.303Z,4
2023-03-28T08:01:49.193Z,4
2023-03-28T08:02:56.129Z,8
2023-03-28T08:04:03.106Z,9
2023-03-28T08:05:09.994Z,13
2023-03-28T08:06:29.118Z,16
2023-03-28T08:07:23.690Z,9
2023-03-28T08:08:30.559Z,6
2023-03-28T08:09:37.488Z,5
2023-03-28T08:10:44.318Z,5
2023-03-28T08:11:51.278Z,3
2023-03-28T08:12:58.056Z,7
2023-03-28T08:14:05.001Z,4
2023-03-28T08:15:11.964Z,5
2023-03-28T08:16:18.872Z,4
2023-03-28T08:17:25.787Z,5
2023-03-28T08:18:32.621Z,5
2023-03-28T08:19:39.482Z,6
2023-03-28T08:20:46.349Z,4
2023-03-28T08:21:53.350Z,9
2023-03-28T08:23:00.141Z,25
2023-03-28T08:24:07.076Z,15
2023-03-28T08:25:13.995Z,23
2023-03-28T08:26:20.839Z,34
2023-03-28T08:27:27.662Z,21
2023-03-28T08:28:34.439Z,25
2023-03-28T08:29:41.202Z,19
2023-03-28T08:30:48.128Z,19
2023-03-28T08:32:04.609Z,22
2023-03-28T08:33:11.491Z,6
2023-03-28T08:34:18.303Z,15
2023-03-28T08:35:25.159Z,6
2023-03-28T08:36:31.958Z,9
2023-03-28T08:37:38.840Z,10
2023-03-28T08:38:45.602Z,7
2023-03-28T08:39:55.070Z,7
2023-03-28T08:41:02.011Z,18
2023-03-28T08:42:16.768Z,11
2023-03-28T08:43:23.560Z,14
2023-03-28T08:44:38.334Z,9
2023-03-28T08:45:47.994Z,6
2023-03-28T08:46:54.814Z,19
2023-03-28T08:48:01.639Z,15
2023-03-28T08:49:13.523Z,14
2023-03-28T08:50:20.436Z,16
2023-03-28T08:51:32.218Z,19
2023-03-28T08:52:39.103Z,11
2023-03-28T08:53:45.944Z,11
2023-03-28T08:54:52.799Z,8
2023-03-28T08:55:59.569Z,10
2023-03-28T08:57:06.373Z,10
2023-03-28T08:58:13.443Z,13
2023-03-28T08:59:20.353Z,10
2023-03-28T09:00:32.268Z,15
2023-03-28T09:01:39.416Z,22
2023-03-28T09:02:47.235Z,16
2023-03-28T09:03:54.363Z,13
2023-03-28T09:05:12.307Z,12
2023-03-28T09:06:08.149Z,11
2023-03-28T09:07:19.974Z,11
2023-03-28T09:08:36.911Z,14
2023-03-28T09:09:48.786Z,11
2023-03-28T09:11:05.713Z,7
2023-03-28T09:12:20.374Z,11
2023-03-28T09:13:32.281Z,11
2023-03-28T09:14:39.120Z,5
2023-03-28T09:15:48.891Z,7
2023-03-28T09:17:03.528Z,8
2023-03-28T09:18:18.340Z,8
2023-03-28T09:19:37.302Z,7
2023-03-28T09:20:37.035Z,9
2023-03-28T09:21:55.870Z,5
2023-03-28T09:23:11.000Z,5
2023-03-28T09:24:28.238Z,5
2023-03-28T09:25:45.043Z,5
2023-03-28T09:26:51.949Z,6
2023-03-28T09:28:03.862Z,5
2023-03-28T09:29:15.795Z,6
2023-03-28T09:30:25.521Z,7
2023-03-28T09:31:32.364Z,7
2023-03-28T09:32:44.242Z,5
2023-03-28T09:33:51.023Z,6
2023-03-28T09:34:57.839Z,6
2023-03-28T09:36:04.763Z,6
2023-03-28T09:37:11.654Z,6
2023-03-28T09:38:24.126Z,9
2023-03-28T09:39:36.217Z,9
2023-03-28T09:40:43.233Z,9
2023-03-28T09:41:50.150Z,9
2023-03-28T09:43:00.000Z,10
2023-03-28T09:44:14.993Z,9
2023-03-28T09:45:21.746Z,9
2023-03-28T09:46:38.722Z,8
2023-03-28T09:47:45.563Z,9
2023-03-28T09:48:52.431Z,9
2023-03-28T09:50:09.890Z,8
2023-03-28T09:51:06.233Z,9
2023-03-28T09:52:16.059Z,7
2023-03-28T09:53:22.895Z,6
2023-03-28T09:54:29.804Z,6
2023-03-28T09:55:36.620Z,5
2023-03-28T09:56:43.456Z,6
2023-03-28T09:57:50.206Z,6
2023-03-28T09:59:02.123Z,7
2023-03-28T10:00:08.970Z,7
2023-03-28T10:01:16.223Z,7
2023-03-28T10:02:30.779Z,6
2023-03-28T10:03:37.489Z,8
2023-03-28T10:04:44.299Z,7
2023-03-28T10:05:51.142Z,8
2023-03-28T10:06:57.963Z,16
2023-03-28T10:08:12.502Z,17
2023-03-28T10:09:27.216Z,32
2023-03-28T10:10:33.964Z,14
2023-03-28T10:11:40.838Z,14
2023-03-28T10:12:47.693Z,8
2023-03-28T10:13:54.473Z,8
2023-03-28T10:15:01.376Z,12
2023-03-28T10:16:08.469Z,15
2023-03-28T10:17:15.215Z,12
2023-03-28T10:18:32.153Z,17
2023-03-28T10:19:38.798Z,8
2023-03-28T10:20:45.604Z,17
2023-03-28T10:21:52.405Z,17
2023-03-28T10:22:59.232Z,8
2023-03-28T10:24:06.102Z,8
2023-03-28T10:25:15.825Z,9
2023-03-28T10:26:22.634Z,14
2023-03-28T10:27:29.435Z,7
2023-03-28T10:28:36.236Z,8
2023-03-28T10:29:43.180Z,8
2023-03-28T10:30:49.969Z,7
2023-03-28T10:31:56.730Z,5
2023-03-28T10:33:03.681Z,7
2023-03-28T10:34:13.261Z,6
2023-03-28T10:35:26.478Z,6
2023-03-28T10:36:31.944Z,11
2023-03-28T10:37:38.786Z,8
2023-03-28T10:38:45.696Z,13
2023-03-28T10:39:52.562Z,18
2023-03-28T10:41:06.942Z,12
2023-03-28T10:42:13.886Z,8
2023-03-28T10:43:20.747Z,7
2023-03-28T10:44:27.567Z,5
2023-03-28T10:45:34.405Z,6
2023-03-28T10:46:41.358Z,6
2023-03-28T10:47:48.085Z,6
2023-03-28T10:48:54.886Z,6
2023-03-28T10:50:01.825Z,6
2023-03-28T10:51:08.786Z,6
2023-03-28T10:52:15.555Z,7
2023-03-28T10:53:32.550Z,9
2023-03-28T10:54:44.587Z,7
2023-03-28T10:55:58.183Z,5
2023-03-28T10:57:08.396Z,6
2023-03-28T10:58:17.864Z,5
2023-03-28T10:59:27.584Z,5
2023-03-28T11:00:39.586Z,5
2023-03-28T11:01:51.478Z,4
2023-03-28T11:03:04.499Z,9
2023-03-28T11:04:21.336Z,7
2023-03-28T11:05:30.671Z,6
2023-03-28T11:06:45.489Z,7
2023-03-28T11:07:55.248Z,6
2023-03-28T11:09:07.208Z,6
2023-03-28T11:10:19.911Z,6
2023-03-28T11:11:26.965Z,6
2023-03-28T11:12:51.705Z,10
2023-03-28T11:13:53.450Z,22
2023-03-28T11:15:08.329Z,23
2023-03-28T11:16:23.060Z,43
2023-03-28T11:17:37.907Z,21
2023-03-28T11:18:49.889Z,70
2023-03-28T11:20:06.857Z,97
2023-03-28T11:21:21.439Z,21
2023-03-28T11:22:34.123Z,102
2023-03-28T11:23:43.885Z,50
2023-03-28T11:25:01.232Z,153
2023-03-28T11:26:18.143Z,82
2023-03-28T11:27:30.096Z,44
2023-03-28T11:28:47.126Z,78
2023-03-28T11:29:59.111Z,99
2023-03-28T11:31:08.572Z,63
2023-03-28T11:32:15.436Z,51
2023-03-28T11:33:25.133Z,8
2023-03-28T11:34:34.603Z,10
2023-03-28T11:35:49.457Z,7
2023-03-28T11:36:56.402Z,6
2023-03-28T11:38:08.201Z,12
2023-03-28T11:39:20.022Z,12
2023-03-28T11:40:29.532Z,10
2023-03-28T11:41:42.017Z,5
2023-03-28T11:42:48.778Z,5
2023-03-28T11:43:58.547Z,5
2023-03-28T11:45:10.399Z,4
2023-03-28T11:46:27.361Z,5
2023-03-28T11:47:34.287Z,5
2023-03-28T11:48:41.066Z,5
2023-03-28T11:49:56.002Z,4
2023-03-28T11:51:10.877Z,4
2023-03-28T11:52:20.757Z,5
2023-03-28T11:53:30.271Z,6
2023-03-28T11:54:45.099Z,8
2023-03-28T11:55:56.974Z,7
2023-03-28T11:57:06.469Z,9
2023-03-28T11:58:21.007Z,7
2023-03-28T11:59:27.873Z,8
2023-03-28T12:00:41.811Z,8
2023-03-28T12:01:49.165Z,6
2023-03-28T12:03:01.110Z,6
2023-03-28T12:04:16.144Z,7
2023-03-28T12:05:22.942Z,5
2023-03-28T12:06:34.896Z,5
2023-03-28T12:07:49.463Z,8
2023-03-28T12:09:06.463Z,8
2023-03-28T12:10:13.276Z,7
2023-03-28T12:11:30.185Z,6
2023-03-28T12:12:37.005Z,7
2023-03-28T12:13:58.457Z,6
2023-03-28T12:15:03.594Z,6
2023-03-28T12:16:10.736Z,6
2023-03-28T12:17:20.288Z,7
2023-03-28T12:18:27.081Z,6
2023-03-28T12:19:41.874Z,8
2023-03-28T12:20:48.772Z,7
2023-03-28T12:21:55.528Z,5
2023-03-28T12:23:02.356Z,8
2023-03-28T12:24:16.992Z,7
2023-03-28T12:25:26.583Z,5
2023-03-28T12:26:35.972Z,5
2023-03-28T12:27:53.085Z,5
2023-03-28T12:29:08.108Z,5
2023-03-28T12:30:17.728Z,5
2023-03-28T12:31:27.570Z,7
2023-03-28T12:32:34.410Z,5
2023-03-28T12:33:43.788Z,6
2023-03-28T12:34:55.747Z,6
2023-03-28T12:36:07.627Z,7
2023-03-28T12:37:19.481Z,6
2023-03-28T12:38:32.164Z,6
2023-03-28T12:39:49.083Z,7
2023-03-28T12:41:04.083Z,7
2023-03-28T12:42:10.898Z,7
2023-03-28T12:43:17.726Z,7
2023-03-28T12:44:24.538Z,8
2023-03-28T12:45:31.343Z,6
2023-03-28T12:46:41.244Z,6
2023-03-28T12:47:48.009Z,6
2023-03-28T12:48:54.790Z,10
2023-03-28T12:50:01.683Z,8
2023-03-28T12:51:08.494Z,8
2023-03-28T12:52:20.714Z,9
2023-03-28T12:53:27.531Z,10
2023-03-28T12:54:34.352Z,8
2023-03-28T12:55:51.297Z,8
2023-03-28T12:56:58.106Z,9
2023-03-28T12:58:04.918Z,9
2023-03-28T12:59:16.745Z,10
2023-03-28T13:00:35.430Z,8
2023-03-28T13:01:48.575Z,6
2023-03-28T13:02:55.407Z,5
2023-03-28T13:04:07.318Z,6
2023-03-28T13:05:16.073Z,7
2023-03-28T13:06:23.704Z,5
2023-03-28T13:07:33.156Z,10
2023-03-28T13:08:50.104Z,9
2023-03-28T13:10:02.170Z,7
2023-03-28T13:11:19.040Z,8
2023-03-28T13:12:30.914Z,28
2023-03-28T13:13:42.787Z,23
2023-03-28T13:14:57.337Z,46
2023-03-28T13:16:11.954Z,45
2023-03-28T13:17:18.669Z,74
2023-03-28T13:18:30.511Z,86
2023-03-28T13:19:37.303Z,108
2023-03-28T13:20:46.943Z,121
2023-03-28T13:21:53.748Z,57
2023-03-28T13:23:00.591Z,44
2023-03-28T13:24:10.121Z,83
2023-03-28T13:25:27.093Z,60
2023-03-28T13:26:33.812Z,41
2023-03-28T13:27:50.799Z,57
2023-03-28T13:29:02.703Z,24
2023-03-28T13:30:09.608Z,16
2023-03-28T13:31:21.652Z,24
2023-03-28T13:32:28.454Z,18
2023-03-28T13:33:35.238Z,22
2023-03-28T13:34:42.051Z,12
2023-03-28T13:35:49.206Z,9
2023-03-28T13:37:01.055Z,19
2023-03-28T13:38:18.017Z,9
2023-03-28T13:39:27.781Z,10
2023-03-28T13:40:34.674Z,8
2023-03-28T13:41:46.692Z,12
2023-03-28T13:42:53.647Z,11
2023-03-28T13:44:00.477Z,13
2023-03-28T13:45:12.757Z,8
2023-03-28T13:46:24.935Z,9
2023-03-28T13:47:36.808Z,13
2023-03-28T13:48:43.672Z,14
2023-03-28T13:49:55.577Z,9
2023-03-28T13:51:12.449Z,10
2023-03-28T13:52:21.857Z,9
2023-03-28T13:53:37.577Z,9
2023-03-28T13:54:35.486Z,12
2023-03-28T13:55:42.422Z,10
2023-03-28T13:56:49.254Z,18
2023-03-28T13:57:56.048Z,13
2023-03-28T13:59:02.815Z,9
2023-03-28T14:00:09.699Z,12
2023-03-28T14:01:16.910Z,12
2023-03-28T14:02:23.746Z,11
2023-03-28T14:03:39.617Z,11
2023-03-28T14:04:45.248Z,7
2023-03-28T14:05:57.128Z,8
2023-03-28T14:07:03.900Z,10
2023-03-28T14:08:10.716Z,8
2023-03-28T14:09:17.645Z,6
2023-03-28T14:10:24.516Z,9
2023-03-28T14:11:36.410Z,9
2023-03-28T14:12:43.167Z,8
2023-03-28T14:13:49.957Z,10
2023-03-28T14:14:56.803Z,9
2023-03-28T14:16:03.634Z,8
2023-03-28T14:17:10.562Z,10
2023-03-28T14:18:17.343Z,6
2023-03-28T14:19:29.271Z,8
2023-03-28T14:20:40.334Z,9
2023-03-28T14:21:46.009Z,8
2023-03-28T14:23:00.203Z,7
2023-03-28T14:23:59.712Z,6
2023-03-28T14:25:09.250Z,8
2023-03-28T14:26:16.166Z,6
2023-03-28T14:27:23.013Z,6
2023-03-28T14:28:35.061Z,8
2023-03-28T14:29:41.936Z,8
2023-03-28T14:30:53.839Z,7
2023-03-28T14:32:00.740Z,7
2023-03-28T14:33:07.692Z,7
2023-03-28T14:34:14.417Z,7
2023-03-28T14:35:23.985Z,7
2023-03-28T14:36:30.774Z,8
2023-03-28T14:37:37.593Z,8
2023-03-28T14:38:49.377Z,18
2023-03-28T14:39:56.264Z,31
2023-03-28T14:41:03.119Z,38
2023-03-28T14:42:15.010Z,68
2023-03-28T14:43:21.860Z,104
2023-03-28T14:44:28.589Z,101
2023-03-28T14:45:35.558Z,52
2023-03-28T14:46:42.405Z,94
2023-03-28T14:47:49.289Z,69
2023-03-28T14:48:56.088Z,146
2023-03-28T14:50:02.932Z,87
2023-03-28T14:51:10.053Z,115
2023-03-28T14:52:16.959Z,88
2023-03-28T14:53:28.848Z,122
2023-03-28T14:54:40.731Z,133
2023-03-28T14:55:47.594Z,87
2023-03-28T14:56:54.545Z,44
2023-03-28T14:58:01.344Z,80
2023-03-28T14:59:08.263Z,112
2023-03-28T15:00:15.112Z,38
2023-03-28T15:01:24.770Z,58
2023-03-28T15:02:31.569Z,87
2023-03-28T15:03:38.522Z,55
2023-03-28T15:04:45.315Z,32
2023-03-28T15:05:52.110Z,41
2023-03-28T15:06:58.882Z,47
2023-03-28T15:08:05.751Z,18
2023-03-28T15:09:12.688Z,32
2023-03-28T15:10:29.573Z,23
2023-03-28T15:11:36.382Z,7
2023-03-28T15:12:43.218Z,6
2023-03-28T15:13:50.085Z,8
2023-03-28T15:15:01.972Z,6
2023-03-28T15:16:09.129Z,7
2023-03-28T15:17:20.998Z,8
2023-03-28T15:18:27.887Z,6
2023-03-28T15:19:34.716Z,7
2023-03-28T15:20:41.528Z,7
2023-03-28T15:21:48.437Z,8
2023-03-28T15:22:57.967Z,8
2023-03-28T15:24:04.759Z,7
2023-03-28T15:25:14.397Z,6
2023-03-28T15:26:21.421Z,6
2023-03-28T15:27:33.304Z,7
2023-03-28T15:28:40.221Z,8
2023-03-28T15:29:46.998Z,10
2023-03-28T15:30:53.952Z,13
2023-03-28T15:32:00.744Z,10
2023-03-28T15:33:10.701Z,8
2023-03-28T15:34:20.025Z,8
2023-03-28T15:35:28.036Z,7
2023-03-28T15:36:34.906Z,9
2023-03-28T15:37:41.808Z,7
2023-03-28T15:38:48.699Z,9
2023-03-28T15:40:03.536Z,12
2023-03-28T15:41:20.632Z,9
2023-03-28T15:42:27.399Z,16
2023-03-28T15:43:36.743Z,10
2023-03-28T15:44:43.565Z,9
2023-03-28T15:45:55.521Z,7
2023-03-28T15:47:02.253Z,7
2023-03-28T15:48:09.010Z,11
2023-03-28T15:49:18.475Z,8
2023-03-28T15:50:25.451Z,12
2023-03-28T15:51:35.346Z,7
2023-03-28T15:52:45.104Z,10
2023-03-28T15:53:51.908Z,10
2023-03-28T15:54:58.771Z,8
2023-03-28T15:56:05.613Z,8
2023-03-28T15:57:15.046Z,13
2023-03-28T15:58:24.961Z,8
2023-03-28T15:59:31.745Z,8
2023-03-28T16:00:38.696Z,9
2023-03-28T16:01:48.092Z,9
2023-03-28T16:02:55.088Z,8
2023-03-28T16:04:01.786Z,8
2023-03-28T16:05:18.740Z,10
2023-03-28T16:06:31.974Z,7
2023-03-28T16:07:32.350Z,6
2023-03-28T16:08:44.385Z,8
2023-03-28T16:09:51.217Z,7
2023-03-28T16:10:58.031Z,7
2023-03-28T16:12:04.863Z,9
2023-03-28T16:13:11.735Z,9
2023-03-28T16:14:18.547Z,7
2023-03-28T16:15:25.334Z,6
2023-03-28T16:16:32.316Z,8
2023-03-28T16:17:39.078Z,6
2023-03-28T16:18:45.916Z,10
2023-03-28T16:19:52.724Z,12
2023-03-28T16:20:59.546Z,13
2023-03-28T16:22:06.742Z,14
2023-03-28T16:23:13.603Z,11
2023-03-28T16:24:20.430Z,9
2023-03-28T16:25:27.428Z,9
2023-03-28T16:26:34.335Z,6
2023-03-28T16:27:41.102Z,10
2023-03-28T16:28:47.855Z,9
2023-03-28T16:29:54.600Z,7
2023-03-28T16:31:01.476Z,6
2023-03-28T16:32:08.498Z,11
2023-03-28T16:33:15.298Z,8